Time;durP1;ratioP1;P1;durP2;ratioP2;P2;SDS_P1;SDS_P2;PMS_P1;PMS_P2;Temp;Humidity;BMP_temperature;BMP_pressure;BME280_temperature;BME280_humidity;BME280_pressure;Samples;Min_cycle;Max_cycle;Signal;HPM_P1;HPM_P2
2022/06/29 00:00:18;;;;;;;;;;;;;;;;;;5053561;28;1475;-76
2022/06/29 00:02:45;;;;;;;;;;;;;;;;;;5053658;28;1293;-76
2022/06/29 00:05:11;;;;;;;;;;;;;;;;;;5053313;28;1056;-75
2022/06/29 00:07:38;;;;;;;;;;;;;;;;;;5053042;28;945;-76
2022/06/29 00:10:04;;;;;;;;;;;;;;;;;;5035638;28;1979;-75
2022/06/29 00:12:31;;;;;;;;;;;;;;;;;;5053454;28;1287;-75
2022/06/29 00:15:02;;;;;;;;;;;;;;;;;;5053171;28;1118;-76
2022/06/29 00:17:28;;;;;;;;;;;;;;;;;;5052920;28;1079;-75
2022/06/29 00:19:54;;;;;;;;;;;;;;;;;;5053324;28;1111;-77
2022/06/29 00:22:20;;;;;;;;;;;;;;;;;;5053221;28;1290;-75
2022/06/29 00:24:47;;;;;;;;;;;;;;;;;;5053173;28;1064;-74
2022/06/29 00:27:13;;;;;;;;;;;;;;;;;;5034901;28;1368;-75
2022/06/29 00:29:39;;;;;;;;;;;;;;;;;;5035358;28;1979;-76
2022/06/29 00:32:07;;;;;;;;;;;;;;;;;;5052875;28;1290;-76
2022/06/29 00:34:34;;;;;;;;;;;;;;;;;;5053384;28;1420;-75
2022/06/29 00:37:00;;;;;;;;;;;;;;;;;;5052714;28;791;-77
2022/06/29 00:39:26;;;;;;;;;;;;;;;;;;5053041;28;1076;-76
2022/06/29 00:41:52;;;;;;;;;;;;;;;;;;5052671;28;1320;-76
2022/06/29 00:44:19;;;;;;;;;;;;;;;;;;5052851;28;1242;-76
2022/06/29 00:46:47;;;;;;;;;;;;;;;;;;5034241;28;1271;-73
2022/06/29 00:49:14;;;;;;;;;;;;;;;;;;5052526;28;1914;-74
2022/06/29 00:51:41;;;;;;;;;;;;;;;;;;5052976;28;1408;-74
2022/06/29 00:54:07;;;;;;;;;;;;;;;;;;5052669;28;1114;-75
2022/06/29 00:56:33;;;;;;;;;;;;;;;;;;5051644;28;1111;-75
2022/06/29 00:59:00;;;;;;;;;;;;;;;;;;5052203;28;798;-74
2022/06/29 01:01:26;;;;;;;;;;;;;;;;;;5052723;28;1138;-74
2022/06/29 01:03:52;;;;;;;;;;;;;;;;;;5034739;28;1278;-75
2022/06/29 01:06:19;;;;;;;;;;;;;;;;;;5051777;28;1092;-74
2022/06/29 01:08:46;;;;;;;;;;;;;;;;;;5052258;28;1068;-75
2022/06/29 01:11:12;;;;;;;;;;;;;;;;;;5052313;28;1918;-74
2022/06/29 01:13:41;;;;;;;;;;;;;;;;;;5052212;28;1299;-75
2022/06/29 01:16:07;;;;;;;;;;;;;;;;;;5033539;28;937;-75
2022/06/29 01:18:34;;;;;;;;;;;;;;;;;;5052991;28;791;-75
2022/06/29 01:21:02;;;;;;;;;;;;;;;;;;5035199;28;1119;-74
2022/06/29 01:23:30;;;;;;;;;;;;;;;;;;5052405;28;1306;-74
2022/06/29 01:25:56;;;;;;;;;;;;;;;;;;5052249;28;835;-75
2022/06/29 01:28:22;;;;;;;;;;;;;;;;;;5051341;28;1072;-74
2022/06/29 01:30:48;;;;;;;;;;;;;;;;;;5052082;28;1910;-75
2022/06/29 01:33:14;;;;;;;;;;;;;;;;;;5034323;28;1328;-76
2022/06/29 01:35:41;;;;;;;;;;;;;;;;;;5034298;28;1121;-75
2022/06/29 01:38:07;;;;;;;;;;;;;;;;;;5051581;28;1107;-75
2022/06/29 01:40:36;;;;;;;;;;;;;;;;;;5052254;28;946;-75
2022/06/29 01:43:02;;;;;;;;;;;;;;;;;;5051511;28;1350;-75
2022/06/29 01:45:28;;;;;;;;;;;;;;;;;;5033591;28;1176;-75
2022/06/29 01:47:54;;;;;;;;;;;;;;;;;;5051074;28;980;-75
2022/06/29 01:50:21;;;;;;;;;;;;;;;;;;5051857;28;1914;-75
2022/06/29 01:52:47;;;;;;;;;;;;;;;;;;5051578;28;1320;-75
2022/06/29 01:55:13;;;;;;;;;;;;;;;;;;5051438;28;1083;-75
2022/06/29 01:57:41;;;;;;;;;;;;;;;;;;5050786;28;1123;-75
2022/06/29 02:00:08;;;;;;;;;;;;;;;;;;5051010;28;1526;-75
2022/06/29 02:02:34;;;;;;;;;;;;;;;;;;5051384;28;1371;-74
2022/06/29 02:05:00;;;;;;;;;;;;;;;;;;5044113;28;1869;-75
2022/06/29 02:07:26;;;;;;;;;;;;;;;;;;5050548;28;1178;-74
2022/06/29 02:09:52;;;;;;;;;;;;;;;;;;5032777;28;1959;-74
2022/06/29 02:12:19;;;;;;;;;;;;;;;;;;5051191;28;1364;-74
2022/06/29 02:14:46;;;;;;;;;;;;;;;;;;5032879;28;1202;-74
2022/06/29 02:17:13;;;;;;;;;;;;;;;;;;5050539;28;854;-74
2022/06/29 02:19:39;;;;;;;;;;;;;;;;;;5051122;28;822;-74
2022/06/29 02:22:05;;;;;;;;;;;;;;;;;;5050870;28;1262;-74
2022/06/29 02:24:32;;;;;;;;;;;;;;;;;;5033243;28;1155;-74
2022/06/29 02:26:58;;;;;;;;;;;;;;;;;;5050481;28;1083;-74
2022/06/29 02:29:24;;;;;;;;;;;;;;;;;;5050865;28;1969;-74
2022/06/29 02:34:46;;;;;;;;;;;;;;;;;;5051054;28;980;-74
2022/06/29 02:37:12;;;;;;;;;;;;;;;;;;5050402;28;1056;-74
2022/06/29 02:39:38;;;;;;;;;;;;;;;;;;5050802;28;1127;-74
2022/06/29 02:42:05;;;;;;;;;;;;;;;;;;5050327;28;1302;-74
2022/06/29 02:44:31;;;;;;;;;;;;;;;;;;5051019;28;1056;-74
2022/06/29 02:46:58;;;;;;;;;;;;;;;;;;5050039;28;1064;-74
2022/06/29 02:49:25;;;;;;;;;;;;;;;;;;5050716;28;1971;-74
2022/06/29 02:51:51;;;;;;;;;;;;;;;;;;5050418;28;1384;-75
2022/06/29 02:54:17;;;;;;;;;;;;;;;;;;5050371;28;1071;-74
2022/06/29 02:56:43;;;;;;;;;;;;;;;;;;5049875;28;1056;-75
2022/06/29 02:59:09;;;;;;;;;;;;;;;;;;5050591;28;795;-74
2022/06/29 03:01:36;;;;;;;;;;;;;;;;;;5050656;28;1126;-74
2022/06/29 03:04:03;;;;;;;;;;;;;;;;;;5050359;28;1427;-74
2022/06/29 03:06:29;;;;;;;;;;;;;;;;;;5049523;28;914;-74
2022/06/29 03:08:56;;;;;;;;;;;;;;;;;;5050003;28;1076;-74
2022/06/29 03:11:22;;;;;;;;;;;;;;;;;;5050321;28;1910;-74
2022/06/29 03:13:48;;;;;;;;;;;;;;;;;;5032203;28;1368;-74
2022/06/29 03:16:14;;;;;;;;;;;;;;;;;;5049428;28;767;-75
2022/06/29 03:18:41;;;;;;;;;;;;;;;;;;5050310;28;1068;-74
2022/06/29 03:21:08;;;;;;;;;;;;;;;;;;5054220;28;1135;-74
2022/06/29 03:23:34;;;;;;;;;;;;;;;;;;5036427;28;1363;-74
2022/06/29 03:26:00;;;;;;;;;;;;;;;;;;5053827;28;1064;-74
2022/06/29 03:28:27;;;;;;;;;;;;;;;;;;5053663;28;1076;-74
2022/06/29 03:30:53;;;;;;;;;;;;;;;;;;5054501;28;1914;-74
2022/06/29 03:33:19;;;;;;;;;;;;;;;;;;5054065;28;1282;-74
2022/06/29 03:35:45;;;;;;;;;;;;;;;;;;5035676;28;1213;-74
2022/06/29 03:38:13;;;;;;;;;;;;;;;;;;5053562;28;798;-74
2022/06/29 03:40:39;;;;;;;;;;;;;;;;;;5053992;28;740;-74
2022/06/29 03:43:05;;;;;;;;;;;;;;;;;;5052784;28;1423;-74
2022/06/29 03:45:31;;;;;;;;;;;;;;;;;;5048941;28;1457;-75
2022/06/29 03:47:57;;;;;;;;;;;;;;;;;;5063028;28;1352;-75
2022/06/29 03:50:23;;;;;;;;;;;;;;;;;;5070244;28;1926;-76
2022/06/29 03:52:50;;;;;;;;;;;;;;;;;;5065639;28;1592;-75
2022/06/29 03:55:17;;;;;;;;;;;;;;;;;;5053913;28;1096;-75
2022/06/29 03:57:43;;;;;;;;;;;;;;;;;;5053636;28;968;-75
2022/06/29 04:00:10;;;;;;;;;;;;;;;;;;5052114;28;1455;-74
2022/06/29 04:02:39;;;;;;;;;;;;;;;;;;5058551;28;1600;-75
2022/06/29 04:05:05;;;;;;;;;;;;;;;;;;5064045;28;1332;-74
2022/06/29 04:07:32;;;;;;;;;;;;;;;;;;5047205;28;1722;-74
2022/06/29 04:09:59;;;;;;;;;;;;;;;;;;5073503;28;1969;-73
2022/06/29 04:12:27;;;;;;;;;;;;;;;;;;5059633;28;1629;-74
2022/06/29 04:14:54;;;;;;;;;;;;;;;;;;5036711;28;1403;-73
2022/06/29 04:17:20;;;;;;;;;;;;;;;;;;5046699;28;1253;-74
2022/06/29 04:19:46;;;;;;;;;;;;;;;;;;5046409;28;1409;-74
2022/06/29 04:22:12;;;;;;;;;;;;;;;;;;5065335;28;1390;-74
2022/06/29 04:24:38;;;;;;;;;;;;;;;;;;5073645;28;724;-75
2022/06/29 04:27:04;;;;;;;;;;;;;;;;;;5045351;28;1425;-75
2022/06/29 04:29:32;;;;;;;;;;;;;;;;;;5047545;28;1237;-74
2022/06/29 04:31:58;;;;;;;;;;;;;;;;;;5069785;28;1914;-74
2022/06/29 04:34:24;;;;;;;;;;;;;;;;;;5054319;28;1460;-74
2022/06/29 04:36:51;;;;;;;;;;;;;;;;;;5046659;28;1314;-74
2022/06/29 04:39:17;;;;;;;;;;;;;;;;;;5044468;28;1289;-74
2022/06/29 04:41:44;;;;;;;;;;;;;;;;;;5042010;28;1415;-74
2022/06/29 04:44:10;;;;;;;;;;;;;;;;;;5041972;28;1264;-74
2022/06/29 04:46:37;;;;;;;;;;;;;;;;;;5042925;28;1294;-74
2022/06/29 04:49:04;;;;;;;;;;;;;;;;;;5041638;28;1304;-74
2022/06/29 04:51:30;;;;;;;;;;;;;;;;;;5042167;28;1914;-74
2022/06/29 04:53:57;;;;;;;;;;;;;;;;;;5025352;28;1303;-74
2022/06/29 04:56:23;;;;;;;;;;;;;;;;;;5023258;28;1343;-74
2022/06/29 04:58:50;;;;;;;;;;;;;;;;;;5041864;28;1403;-73
2022/06/29 05:01:17;;;;;;;;;;;;;;;;;;5025864;28;1327;-73
2022/06/29 05:03:44;;;;;;;;;;;;;;;;;;5038169;28;1367;-73
2022/06/29 05:06:11;;;;;;;;;;;;;;;;;;5032359;28;898;-73
2022/06/29 05:08:37;;;;;;;;;;;;;;;;;;5032867;28;1072;-73
2022/06/29 05:11:03;;;;;;;;;;;;;;;;;;5040693;28;1910;-74
2022/06/29 05:13:29;;;;;;;;;;;;;;;;;;5017825;28;1390;-73
2022/06/29 05:15:55;;;;;;;;;;;;;;;;;;5014619;28;819;-73
2022/06/29 05:18:21;;;;;;;;;;;;;;;;;;5031519;28;946;-72
2022/06/29 05:20:49;;;;;;;;;;;;;;;;;;5032513;28;1279;-72
2022/06/29 05:23:15;;;;;;;;;;;;;;;;;;5014184;28;1360;-73
2022/06/29 05:25:41;;;;;;;;;;;;;;;;;;5032202;28;1012;-73
2022/06/29 05:28:08;;;;;;;;;;;;;;;;;;5031460;28;811;-72
2022/06/29 05:30:35;;;;;;;;;;;;;;;;;;5031957;28;1906;-72
2022/06/29 05:33:01;;;;;;;;;;;;;;;;;;5032103;28;1318;-72
2022/06/29 05:35:29;;;;;;;;;;;;;;;;;;5031796;28;1072;-73
2022/06/29 05:37:57;;;;;;;;;;;;;;;;;;5031353;28;1033;-73
2022/06/29 05:40:24;;;;;;;;;;;;;;;;;;5014403;28;907;-73
2022/06/29 05:42:51;;;;;;;;;;;;;;;;;;5030410;28;1334;-75
2022/06/29 05:45:17;;;;;;;;;;;;;;;;;;5013913;28;1148;-75
2022/06/29 05:47:43;;;;;;;;;;;;;;;;;;5031052;28;1081;-73
2022/06/29 05:50:10;;;;;;;;;;;;;;;;;;5031983;28;1055;-73
2022/06/29 05:52:36;;;;;;;;;;;;;;;;;;5013800;28;1922;-72
2022/06/29 05:55:04;;;;;;;;;;;;;;;;;;5013807;28;1183;-72
2022/06/29 05:57:30;;;;;;;;;;;;;;;;;;5031156;28;780;-72
2022/06/29 05:59:56;;;;;;;;;;;;;;;;;;5042648;28;1535;-73
2022/06/29 06:02:23;;;;;;;;;;;;;;;;;;5051292;28;1370;-73
2022/06/29 06:04:49;;;;;;;;;;;;;;;;;;5051162;28;984;-73
2022/06/29 06:07:15;;;;;;;;;;;;;;;;;;5050726;28;1075;-73
2022/06/29 06:09:41;;;;;;;;;;;;;;;;;;5051522;28;1139;-73
2022/06/29 06:12:09;;;;;;;;;;;;;;;;;;5051404;28;2002;-73
2022/06/29 06:14:35;;;;;;;;;;;;;;;;;;5050986;28;1118;-72
2022/06/29 06:17:01;;;;;;;;;;;;;;;;;;5032468;28;1189;-73
2022/06/29 06:19:28;;;;;;;;;;;;;;;;;;5051344;28;1099;-72
2022/06/29 06:21:54;;;;;;;;;;;;;;;;;;5033092;28;1389;-74
2022/06/29 06:24:20;;;;;;;;;;;;;;;;;;5050837;28;857;-73
2022/06/29 06:26:46;;;;;;;;;;;;;;;;;;5041411;28;1299;-74
2022/06/29 06:29:14;;;;;;;;;;;;;;;;;;5045420;28;1330;-72
2022/06/29 06:31:40;;;;;;;;;;;;;;;;;;5040768;28;1983;-74
2022/06/29 06:34:06;;;;;;;;;;;;;;;;;;5043871;28;1185;-73
2022/06/29 06:36:32;;;;;;;;;;;;;;;;;;5034651;28;1384;-74
2022/06/29 06:38:59;;;;;;;;;;;;;;;;;;5030756;28;818;-73
2022/06/29 06:41:25;;;;;;;;;;;;;;;;;;5031034;28;1135;-73
2022/06/29 06:43:52;;;;;;;;;;;;;;;;;;5030362;28;1374;-72
2022/06/29 06:46:19;;;;;;;;;;;;;;;;;;5030216;28;1064;-73
2022/06/29 06:48:45;;;;;;;;;;;;;;;;;;5031495;28;1129;-74
2022/06/29 06:51:12;;;;;;;;;;;;;;;;;;5065065;28;1945;-74
2022/06/29 06:53:38;;;;;;;;;;;;;;;;;;5063131;28;1249;-73
2022/06/29 06:56:04;;;;;;;;;;;;;;;;;;5030072;28;946;-73
2022/06/29 06:58:30;;;;;;;;;;;;;;;;;;5030154;28;1143;-72
2022/06/29 07:00:56;;;;;;;;;;;;;;;;;;5029705;28;1068;-72
2022/06/29 07:03:24;;;;;;;;;;;;;;;;;;5029600;28;1401;-72
2022/06/29 07:05:50;;;;;;;;;;;;;;;;;;5029965;28;1072;-71
2022/06/29 07:08:16;;;;;;;;;;;;;;;;;;5011712;28;1324;-72
2022/06/29 07:10:42;;;;;;;;;;;;;;;;;;5029440;28;1914;-73
2022/06/29 07:13:09;;;;;;;;;;;;;;;;;;5011947;28;1291;-72
2022/06/29 07:15:35;;;;;;;;;;;;;;;;;;5034667;28;1072;-72
2022/06/29 07:18:01;;;;;;;;;;;;;;;;;;5046561;28;917;-72
2022/06/29 07:20:30;;;;;;;;;;;;;;;;;;5043282;28;1084;-74
2022/06/29 07:22:57;;;;;;;;;;;;;;;;;;5049529;28;1534;-72
2022/06/29 07:25:23;;;;;;;;;;;;;;;;;;5060497;28;891;-72
2022/06/29 07:27:49;;;;;;;;;;;;;;;;;;5050823;28;1329;-72
2022/06/29 07:30:15;;;;;;;;;;;;;;;;;;5069452;28;894;-72
2022/06/29 07:32:41;;;;;;;;;;;;;;;;;;5069503;28;1975;-72
2022/06/29 07:35:08;;;;;;;;;;;;;;;;;;5059549;28;1095;-72
2022/06/29 07:37:35;;;;;;;;;;;;;;;;;;5049341;28;1068;-72
2022/06/29 07:40:01;;;;;;;;;;;;;;;;;;5049377;28;1122;-72
2022/06/29 07:42:28;;;;;;;;;;;;;;;;;;5049868;28;1271;-72
2022/06/29 07:44:54;;;;;;;;;;;;;;;;;;5049249;28;1072;-72
2022/06/29 07:47:20;;;;;;;;;;;;;;;;;;5049127;28;906;-73
2022/06/29 07:49:46;;;;;;;;;;;;;;;;;;5049359;28;1072;-73
2022/06/29 07:52:12;;;;;;;;;;;;;;;;;;5048557;28;1969;-74
2022/06/29 07:54:40;;;;;;;;;;;;;;;;;;5049525;28;1110;-74
2022/06/29 07:57:06;;;;;;;;;;;;;;;;;;5048843;28;1064;-74
2022/06/29 07:59:32;;;;;;;;;;;;;;;;;;5049345;28;906;-73
2022/06/29 08:01:58;;;;;;;;;;;;;;;;;;5049020;28;1412;-74
2022/06/29 08:04:24;;;;;;;;;;;;;;;;;;5025480;28;1370;-74
2022/06/29 08:06:51;;;;;;;;;;;;;;;;;;5030438;28;1639;-73
2022/06/29 08:09:17;;;;;;;;;;;;;;;;;;5032397;28;1207;-73
2022/06/29 08:11:45;;;;;;;;;;;;;;;;;;5031858;28;1918;-73
2022/06/29 08:14:11;;;;;;;;;;;;;;;;;;5032356;28;1072;-72
2022/06/29 08:16:37;;;;;;;;;;;;;;;;;;5032159;28;1055;-72
2022/06/29 08:19:03;;;;;;;;;;;;;;;;;;5032589;28;918;-73
2022/06/29 08:21:29;;;;;;;;;;;;;;;;;;5032337;28;997;-73
2022/06/29 08:23:55;;;;;;;;;;;;;;;;;;5032523;28;1310;-73
2022/06/29 08:26:22;;;;;;;;;;;;;;;;;;5030818;28;1140;-72
2022/06/29 08:28:49;;;;;;;;;;;;;;;;;;5032669;28;949;-73
2022/06/29 08:31:15;;;;;;;;;;;;;;;;;;5032268;28;1914;-73
2022/06/29 08:33:43;;;;;;;;;;;;;;;;;;5032393;28;1298;-73
2022/06/29 08:36:09;;;;;;;;;;;;;;;;;;5030596;28;1052;-73
2022/06/29 08:38:35;;;;;;;;;;;;;;;;;;5030833;28;1270;-73
2022/06/29 08:41:02;;;;;;;;;;;;;;;;;;5032328;28;984;-73
2022/06/29 08:43:28;;;;;;;;;;;;;;;;;;5031940;28;1395;-73
2022/06/29 08:45:55;;;;;;;;;;;;;;;;;;5032506;28;997;-73
2022/06/29 08:48:22;;;;;;;;;;;;;;;;;;5031500;28;1056;-73
2022/06/29 08:50:50;;;;;;;;;;;;;;;;;;5030889;28;1272;-72
2022/06/29 08:53:16;;;;;;;;;;;;;;;;;;5031770;28;1976;-73
2022/06/29 08:55:43;;;;;;;;;;;;;;;;;;5031351;28;1649;-72
2022/06/29 08:58:09;;;;;;;;;;;;;;;;;;5031667;28;902;-74
2022/06/29 09:00:37;;;;;;;;;;;;;;;;;;5030311;28;1462;-73
2022/06/29 09:03:05;;;;;;;;;;;;;;;;;;5031583;28;1310;-73
2022/06/29 09:05:31;;;;;;;;;;;;;;;;;;5032236;28;926;-73
2022/06/29 09:07:57;;;;;;;;;;;;;;;;;;5030095;28;1206;-73
2022/06/29 09:10:24;;;;;;;;;;;;;;;;;;5030520;28;1390;-73
2022/06/29 09:12:52;;;;;;;;;;;;;;;;;;5031514;28;1973;-73
2022/06/29 09:15:20;;;;;;;;;;;;;;;;;;5031702;28;946;-73
2022/06/29 09:17:46;;;;;;;;;;;;;;;;;;5030971;28;965;-73
2022/06/29 09:20:14;;;;;;;;;;;;;;;;;;5031516;28;1052;-73
2022/06/29 09:22:41;;;;;;;;;;;;;;;;;;5031360;28;1333;-73
2022/06/29 09:25:07;;;;;;;;;;;;;;;;;;5031569;28;755;-74
2022/06/29 09:27:34;;;;;;;;;;;;;;;;;;5030954;28;981;-74
2022/06/29 09:30:00;;;;;;;;;;;;;;;;;;5031192;28;1064;-73
2022/06/29 09:32:28;;;;;;;;;;;;;;;;;;5030928;28;1910;-73
2022/06/29 09:34:54;;;;;;;;;;;;;;;;;;5031602;28;853;-73
2022/06/29 09:37:22;;;;;;;;;;;;;;;;;;5030788;28;967;-73
2022/06/29 09:39:49;;;;;;;;;;;;;;;;;;5013479;28;1118;-74
2022/06/29 09:42:16;;;;;;;;;;;;;;;;;;5030620;28;1295;-73
2022/06/29 09:44:43;;;;;;;;;;;;;;;;;;5013259;28;1113;-74
2022/06/29 09:47:12;;;;;;;;;;;;;;;;;;5030386;28;1056;-73
2022/06/29 09:49:38;;;;;;;;;;;;;;;;;;5031294;28;961;-74
2022/06/29 09:52:05;;;;;;;;;;;;;;;;;;5030745;28;1922;-72
2022/06/29 09:54:36;;;;;;;;;;;;;;;;;;5033924;28;1456;-73
2022/06/29 09:57:02;;;;;;;;;;;;;;;;;;5050103;28;1507;-73
2022/06/29 10:04:58;;;;;;;;;;;;;;;;;;5050947;28;811;-72
2022/06/29 10:07:24;;;;;;;;;;;;;;;;;;5050232;28;1076;-73
2022/06/29 10:09:52;;;;;;;;;;;;;;;;;;5050454;28;820;-73
2022/06/29 10:15:06;;;;;;;;;;;;;;;;;;5032685;28;1016;-72
2022/06/29 10:17:35;;;;;;;;;;;;;;;;;;5050305;28;1052;-73
2022/06/29 10:20:06;;;;;;;;;;;;;;;;;;5050210;28;1060;-73
2022/06/29 10:22:32;;;;;;;;;;;;;;;;;;5050654;28;1332;-73
2022/06/29 10:25:04;;;;;;;;;;;;;;;;;;5050473;28;952;-73
2022/06/29 10:27:30;;;;;;;;;;;;;;;;;;5049784;28;1076;-73
2022/06/29 10:30:11;;;;;;;;;;;;;;;;;;5049381;28;1132;-73
2022/06/29 10:32:38;;;;;;;;;;;;;;;;;;5049157;28;1977;-73
2022/06/29 10:35:08;;;;;;;;;;;;;;;;;;5050377;28;890;-73
2022/06/29 10:37:34;;;;;;;;;;;;;;;;;;5031902;28;1268;-73
2022/06/29 10:40:04;;;;;;;;;;;;;;;;;;5049684;28;990;-73
2022/06/29 10:45:37;;;;;;;;;;;;;;;;;;5032619;28;827;-73
2022/06/29 10:48:21;;;;;;;;;;;;;;;;;;5032003;28;1163;-73
2022/06/29 10:50:47;;;;;;;;;;;;;;;;;;5049748;28;989;-73
2022/06/29 10:53:14;;;;;;;;;;;;;;;;;;5058411;28;1915;-73
2022/06/29 10:55:40;;;;;;;;;;;;;;;;;;5050153;28;1120;-73
2022/06/29 10:58:06;;;;;;;;;;;;;;;;;;5049106;28;884;-73
2022/06/29 11:00:34;;;;;;;;;;;;;;;;;;5049568;28;957;-73
2022/06/29 11:03:09;;;;;;;;;;;;;;;;;;5031863;28;1316;-73
2022/06/29 11:05:35;;;;;;;;;;;;;;;;;;5049899;28;771;-73
2022/06/29 11:13:29;;;;;;;;;;;;;;;;;;5049751;28;1914;-73
2022/06/29 11:15:57;;;;;;;;;;;;;;;;;;5056275;28;1052;-73
2022/06/29 11:18:26;;;;;;;;;;;;;;;;;;5069136;28;921;-73
2022/06/29 11:20:53;;;;;;;;;;;;;;;;;;5051426;28;1139;-73
2022/06/29 11:23:19;;;;;;;;;;;;;;;;;;5069879;28;1330;-73
2022/06/29 11:25:47;;;;;;;;;;;;;;;;;;5069790;28;1075;-73
2022/06/29 11:28:13;;;;;;;;;;;;;;;;;;5069071;28;1119;-73
2022/06/29 11:30:39;;;;;;;;;;;;;;;;;;5069521;28;1075;-73
2022/06/29 11:33:10;;;;;;;;;;;;;;;;;;5069349;28;1973;-73
2022/06/29 11:35:38;;;;;;;;;;;;;;;;;;5069824;28;889;-73
2022/06/29 11:38:05;;;;;;;;;;;;;;;;;;5068799;28;1100;-73
2022/06/29 11:40:33;;;;;;;;;;;;;;;;;;5069368;28;846;-73
2022/06/29 11:43:05;;;;;;;;;;;;;;;;;;5072801;28;1410;-72
2022/06/29 11:45:43;;;;;;;;;;;;;;;;;;5055557;28;1032;-73
2022/06/29 11:48:13;;;;;;;;;;;;;;;;;;5056572;28;2464;-72
2022/06/29 11:50:44;;;;;;;;;;;;;;;;;;5052557;28;1314;-73
2022/06/29 11:53:10;;;;;;;;;;;;;;;;;;5052763;28;2021;-73
2022/06/29 11:55:40;;;;;;;;;;;;;;;;;;5052765;28;1511;-72
2022/06/29 11:58:09;;;;;;;;;;;;;;;;;;5052483;28;783;-73
2022/06/29 12:00:36;;;;;;;;;;;;;;;;;;5052625;28;1076;-72
2022/06/29 12:03:02;;;;;;;;;;;;;;;;;;5052802;28;1355;-73
2022/06/29 12:05:29;;;;;;;;;;;;;;;;;;5035301;28;1274;-72
2022/06/29 12:07:56;;;;;;;;;;;;;;;;;;5052347;28;1099;-73
2022/06/29 12:10:22;;;;;;;;;;;;;;;;;;5042924;28;1188;-73
2022/06/29 12:12:49;;;;;;;;;;;;;;;;;;5024483;28;1914;-74
2022/06/29 12:15:16;;;;;;;;;;;;;;;;;;5041914;28;1231;-72
2022/06/29 12:17:43;;;;;;;;;;;;;;;;;;5041911;28;1223;-73
2022/06/29 12:20:09;;;;;;;;;;;;;;;;;;5040184;28;1326;-73
2022/06/29 12:22:35;;;;;;;;;;;;;;;;;;5041995;28;1363;-72
2022/06/29 12:25:03;;;;;;;;;;;;;;;;;;5041690;28;1244;-74
2022/06/29 12:27:29;;;;;;;;;;;;;;;;;;5040091;28;1271;-73
2022/06/29 12:29:56;;;;;;;;;;;;;;;;;;5041815;28;1279;-73
2022/06/29 12:32:22;;;;;;;;;;;;;;;;;;5041854;28;1989;-73
2022/06/29 12:34:48;;;;;;;;;;;;;;;;;;5032610;28;1294;-73
2022/06/29 12:37:14;;;;;;;;;;;;;;;;;;5031567;28;1049;-74
2022/06/29 12:39:40;;;;;;;;;;;;;;;;;;5032498;28;1052;-73
2022/06/29 12:42:08;;;;;;;;;;;;;;;;;;5035737;28;1368;-73
2022/06/29 12:44:34;;;;;;;;;;;;;;;;;;5039014;28;1263;-73
2022/06/29 12:47:00;;;;;;;;;;;;;;;;;;5032936;28;1234;-73
2022/06/29 12:49:27;;;;;;;;;;;;;;;;;;5032181;28;945;-73
2022/06/29 12:51:53;;;;;;;;;;;;;;;;;;5034073;28;1380;-73
2022/06/29 12:54:19;;;;;;;;;;;;;;;;;;5034611;28;1918;-73
2022/06/29 12:56:45;;;;;;;;;;;;;;;;;;5013595;28;1234;-73
2022/06/29 12:59:14;;;;;;;;;;;;;;;;;;5031538;28;866;-73
2022/06/29 13:01:40;;;;;;;;;;;;;;;;;;5032171;28;1061;-73
2022/06/29 13:04:07;;;;;;;;;;;;;;;;;;5032050;28;1380;-72
2022/06/29 13:06:33;;;;;;;;;;;;;;;;;;5035148;28;1129;-72
2022/06/29 13:08:59;;;;;;;;;;;;;;;;;;5019243;28;1524;-72
2022/06/29 13:11:25;;;;;;;;;;;;;;;;;;5014018;28;1343;-73
2022/06/29 13:13:51;;;;;;;;;;;;;;;;;;5016272;28;1915;-73
2022/06/29 13:16:19;;;;;;;;;;;;;;;;;;5040297;28;1129;-73
2022/06/29 13:18:45;;;;;;;;;;;;;;;;;;5040191;28;1239;-73
2022/06/29 13:21:11;;;;;;;;;;;;;;;;;;5019143;28;1235;-73
2022/06/29 13:23:38;;;;;;;;;;;;;;;;;;5031403;28;1336;-73
2022/06/29 13:26:04;;;;;;;;;;;;;;;;;;5031183;28;1100;-72
2022/06/29 13:28:30;;;;;;;;;;;;;;;;;;5031713;28;818;-72
2022/06/29 13:30:57;;;;;;;;;;;;;;;;;;5031366;28;1243;-73
2022/06/29 13:33:24;;;;;;;;;;;;;;;;;;5031345;28;1970;-73
2022/06/29 13:35:50;;;;;;;;;;;;;;;;;;5013890;28;1000;-73
2022/06/29 13:38:17;;;;;;;;;;;;;;;;;;5012839;28;1188;-73
2022/06/29 13:40:43;;;;;;;;;;;;;;;;;;5031021;28;814;-73
2022/06/29 13:43:09;;;;;;;;;;;;;;;;;;5030872;28;1309;-72
2022/06/29 13:45:35;;;;;;;;;;;;;;;;;;5031559;28;1060;-73
2022/06/29 13:48:02;;;;;;;;;;;;;;;;;;5012590;28;1539;-73
2022/06/29 13:50:29;;;;;;;;;;;;;;;;;;5035646;28;1272;-73
2022/06/29 13:52:57;;;;;;;;;;;;;;;;;;5036808;28;1914;-73
2022/06/29 13:55:23;;;;;;;;;;;;;;;;;;5033767;28;1302;-74
2022/06/29 13:57:49;;;;;;;;;;;;;;;;;;5030940;28;1116;-73
2022/06/29 14:00:18;;;;;;;;;;;;;;;;;;5030832;28;890;-74
2022/06/29 14:02:45;;;;;;;;;;;;;;;;;;5013493;28;1401;-73
2022/06/29 14:05:11;;;;;;;;;;;;;;;;;;5037409;28;1207;-73
2022/06/29 14:07:39;;;;;;;;;;;;;;;;;;5027798;28;1472;-73
2022/06/29 14:10:05;;;;;;;;;;;;;;;;;;5041169;28;1228;-74
2022/06/29 14:12:31;;;;;;;;;;;;;;;;;;5050768;28;1299;-73
2022/06/29 14:14:57;;;;;;;;;;;;;;;;;;5050810;28;1976;-73
2022/06/29 14:17:24;;;;;;;;;;;;;;;;;;5049741;28;1048;-73
2022/06/29 14:19:50;;;;;;;;;;;;;;;;;;5032500;28;1438;-73
2022/06/29 14:22:16;;;;;;;;;;;;;;;;;;5050519;28;1294;-72
2022/06/29 14:24:44;;;;;;;;;;;;;;;;;;5049915;28;1072;-73
2022/06/29 14:27:10;;;;;;;;;;;;;;;;;;5042511;28;1100;-73
2022/06/29 14:29:37;;;;;;;;;;;;;;;;;;5030206;28;1001;-73
2022/06/29 14:32:04;;;;;;;;;;;;;;;;;;5012874;28;1366;-73
2022/06/29 14:34:32;;;;;;;;;;;;;;;;;;5030216;28;1910;-73
2022/06/29 14:36:58;;;;;;;;;;;;;;;;;;5029727;28;672;-73
2022/06/29 14:39:24;;;;;;;;;;;;;;;;;;5030066;28;1025;-73
2022/06/29 14:41:52;;;;;;;;;;;;;;;;;;5012348;28;1350;-73
2022/06/29 14:44:18;;;;;;;;;;;;;;;;;;5030184;28;945;-73
2022/06/29 14:46:44;;;;;;;;;;;;;;;;;;5029136;28;1072;-74
2022/06/29 14:49:10;;;;;;;;;;;;;;;;;;5029803;28;874;-73
2022/06/29 14:51:36;;;;;;;;;;;;;;;;;;5012373;28;1311;-73
2022/06/29 14:54:03;;;;;;;;;;;;;;;;;;5029992;28;1906;-73
2022/06/29 14:56:29;;;;;;;;;;;;;;;;;;5029447;28;890;-73
2022/06/29 14:58:56;;;;;;;;;;;;;;;;;;5029994;28;1064;-74
2022/06/29 15:01:23;;;;;;;;;;;;;;;;;;5030171;28;945;-73
2022/06/29 15:03:51;;;;;;;;;;;;;;;;;;5030385;28;1401;-73
2022/06/29 15:06:17;;;;;;;;;;;;;;;;;;5029515;28;1005;-73
2022/06/29 15:08:43;;;;;;;;;;;;;;;;;;5011845;28;1044;-73
2022/06/29 15:11:09;;;;;;;;;;;;;;;;;;5029870;28;893;-73
2022/06/29 15:13:35;;;;;;;;;;;;;;;;;;5029737;28;1973;-73
2022/06/29 15:16:03;;;;;;;;;;;;;;;;;;5032013;28;949;-73
2022/06/29 15:18:29;;;;;;;;;;;;;;;;;;5032816;28;889;-73
2022/06/29 15:20:55;;;;;;;;;;;;;;;;;;5034069;28;1108;-74
2022/06/29 15:23:22;;;;;;;;;;;;;;;;;;5033734;28;1290;-73
2022/06/29 15:25:48;;;;;;;;;;;;;;;;;;5034080;28;1119;-73
2022/06/29 15:28:14;;;;;;;;;;;;;;;;;;5015034;28;2097;-74
2022/06/29 15:30:40;;;;;;;;;;;;;;;;;;5033740;28;834;-73
2022/06/29 15:33:08;;;;;;;;;;;;;;;;;;5016128;28;1404;-73
2022/06/29 15:41:02;;;;;;;;;;;;;;;;;;5033621;28;1043;-73
2022/06/29 15:43:28;;;;;;;;;;;;;;;;;;5033465;28;1368;-73
2022/06/29 15:45:54;;;;;;;;;;;;;;;;;;5015956;28;1270;-73
2022/06/29 15:48:21;;;;;;;;;;;;;;;;;;5032696;28;1117;-73
2022/06/29 15:50:48;;;;;;;;;;;;;;;;;;5041736;28;1257;-73
2022/06/29 15:55:58;;;;;;;;;;;;;;;;;;5049835;28;1330;-73
2022/06/29 15:58:24;;;;;;;;;;;;;;;;;;5034364;28;1196;-74
2022/06/29 16:00:50;;;;;;;;;;;;;;;;;;5053094;28;1123;-74
2022/06/29 16:03:16;;;;;;;;;;;;;;;;;;5035307;28;1313;-73
2022/06/29 16:05:44;;;;;;;;;;;;;;;;;;5044431;28;1182;-74
2022/06/29 16:08:10;;;;;;;;;;;;;;;;;;5035023;28;1192;-74
2022/06/29 16:10:36;;;;;;;;;;;;;;;;;;5032520;28;1056;-74
2022/06/29 16:13:02;;;;;;;;;;;;;;;;;;5033642;28;1314;-74
2022/06/29 16:15:29;;;;;;;;;;;;;;;;;;5015676;28;1918;-74
2022/06/29 16:17:55;;;;;;;;;;;;;;;;;;5015031;28;1190;-74
2022/06/29 16:20:21;;;;;;;;;;;;;;;;;;5015940;28;1153;-74
2022/06/29 16:22:48;;;;;;;;;;;;;;;;;;5033411;28;1306;-74
2022/06/29 16:25:15;;;;;;;;;;;;;;;;;;5040723;28;1322;-74
2022/06/29 16:27:41;;;;;;;;;;;;;;;;;;5033600;28;1183;-74
2022/06/29 16:30:08;;;;;;;;;;;;;;;;;;5053439;28;1108;-74
2022/06/29 16:32:34;;;;;;;;;;;;;;;;;;5052954;28;1285;-74
2022/06/29 16:35:01;;;;;;;;;;;;;;;;;;5053151;28;1976;-74
2022/06/29 16:37:27;;;;;;;;;;;;;;;;;;5052365;28;953;-74
2022/06/29 16:39:54;;;;;;;;;;;;;;;;;;5053253;28;795;-75
2022/06/29 16:42:21;;;;;;;;;;;;;;;;;;5034960;28;1373;-73
2022/06/29 16:44:47;;;;;;;;;;;;;;;;;;5053317;28;834;-74
2022/06/29 16:47:13;;;;;;;;;;;;;;;;;;5052483;28;1099;-73
2022/06/29 16:49:39;;;;;;;;;;;;;;;;;;5052909;28;886;-74
2022/06/29 16:52:06;;;;;;;;;;;;;;;;;;5052543;28;1327;-74
2022/06/29 16:54:32;;;;;;;;;;;;;;;;;;5050310;28;1914;-74
2022/06/29 16:57:01;;;;;;;;;;;;;;;;;;5063667;28;1287;-74
2022/06/29 16:59:27;;;;;;;;;;;;;;;;;;5061492;28;1320;-73
2022/06/29 17:01:53;;;;;;;;;;;;;;;;;;5054354;28;1513;-74
2022/06/29 17:04:19;;;;;;;;;;;;;;;;;;5066936;28;1758;-74
2022/06/29 17:06:46;;;;;;;;;;;;;;;;;;5050209;28;1371;-74
2022/06/29 17:09:12;;;;;;;;;;;;;;;;;;5055016;28;1120;-74
2022/06/29 17:11:38;;;;;;;;;;;;;;;;;;5072569;28;842;-73
2022/06/29 17:14:06;;;;;;;;;;;;;;;;;;5072038;28;1983;-74
2022/06/29 17:16:32;;;;;;;;;;;;;;;;;;5071615;28;1012;-74
2022/06/29 17:18:58;;;;;;;;;;;;;;;;;;5054784;28;811;-74
2022/06/29 17:21:33;;;;;;;;;;;;;;;;;;5054690;28;1131;-74
2022/06/29 17:23:59;;;;;;;;;;;;;;;;;;5072033;28;1377;-74
2022/06/29 17:26:28;;;;;;;;;;;;;;;;;;5054507;28;1442;-74
2022/06/29 17:28:54;;;;;;;;;;;;;;;;;;5054851;28;1161;-73